Time;durP1;ratioP1;P1;durP2;ratioP2;P2;SDS_P1;SDS_P2;PMS_P1;PMS_P2;Temp;Humidity;BMP_temperature;BMP_pressure;BME280_temperature;BME280_humidity;BME280_pressure;Samples;Min_cycle;Max_cycle;Signal;HPM_P1;HPM_P2
2020/12/07 00:01:05;;;;;;;14.50;9.37;;;2.80;99.90;;;;;;5081130;28;20213;-76
2020/12/07 00:03:32;;;;;;;13.40;8.63;;;2.80;99.90;;;;;;5083405;28;20255;-77
2020/12/07 00:05:58;;;;;;;13.63;9.00;;;2.80;99.90;;;;;;5078503;28;20225;-74
2020/12/07 00:08:25;;;;;;;14.07;8.97;;;2.80;99.90;;;;;;5084003;28;20247;-75
2020/12/07 00:10:52;;;;;;;12.27;8.80;;;2.70;99.90;;;;;;5082909;28;20204;-74
2020/12/07 00:13:19;;;;;;;14.27;9.13;;;2.70;99.90;;;;;;5092196;28;20560;-74
2020/12/07 00:15:45;;;;;;;13.77;7.77;;;2.70;99.90;;;;;;5090172;28;20637;-74
2020/12/07 00:18:12;;;;;;;14.70;9.40;;;2.70;99.90;;;;;;5082996;28;20233;-74
2020/12/07 00:20:38;;;;;;;17.90;9.03;;;2.70;99.90;;;;;;5085686;28;20619;-75
2020/12/07 00:23:06;;;;;;;18.73;10.00;;;2.70;99.90;;;;;;5088778;28;20197;-75
2020/12/07 00:25:33;;;;;;;14.30;8.97;;;2.70;99.90;;;;;;5088312;28;20581;-76
2020/12/07 00:28:00;;;;;;;16.77;9.57;;;2.60;99.90;;;;;;5076798;28;20236;-74
2020/12/07 00:30:27;;;;;;;13.07;8.10;;;2.60;99.90;;;;;;5082378;28;20254;-74
2020/12/07 00:32:53;;;;;;;14.83;8.83;;;2.60;99.90;;;;;;5082687;28;20571;-74
2020/12/07 00:35:20;;;;;;;12.73;8.53;;;2.50;99.90;;;;;;5081733;28;20566;-75
2020/12/07 00:37:46;;;;;;;14.80;9.00;;;2.60;99.90;;;;;;5087481;28;20293;-75
2020/12/07 00:40:13;;;;;;;14.43;9.60;;;2.50;99.90;;;;;;5086610;28;20707;-73
2020/12/07 00:42:40;;;;;;;14.70;9.07;;;2.50;99.90;;;;;;5086495;28;20645;-73
2020/12/07 00:45:07;;;;;;;14.30;8.47;;;2.60;99.90;;;;;;5088430;28;20283;-73
2020/12/07 00:47:34;;;;;;;14.53;9.80;;;2.60;99.90;;;;;;5083074;28;20385;-73
2020/12/07 00:50:00;;;;;;;15.53;9.07;;;2.60;99.90;;;;;;5088570;28;20201;-72
2020/12/07 00:52:27;;;;;;;11.33;8.50;;;2.60;99.90;;;;;;5092191;28;20278;-73
2020/12/07 00:54:53;;;;;;;13.13;9.03;;;2.60;99.90;;;;;;5083825;28;20220;-74
2020/12/07 00:57:20;;;;;;;13.60;8.80;;;2.60;99.90;;;;;;5075658;28;20205;-73
2020/12/07 00:59:46;;;;;;;15.53;9.17;;;2.50;99.90;;;;;;5081541;28;20205;-73
2020/12/07 01:02:14;;;;;;;10.60;8.17;;;2.50;99.90;;;;;;5087750;28;20296;-73
2020/12/07 01:04:40;;;;;;;9.53;6.83;;;2.50;99.90;;;;;;5079514;28;20248;-73
2020/12/07 01:07:07;;;;;;;16.97;9.90;;;2.50;99.90;;;;;;5091371;28;20751;-73
2020/12/07 01:09:33;;;;;;;15.17;9.10;;;2.50;99.90;;;;;;5083399;28;20208;-73
2020/12/07 01:12:01;;;;;;;13.77;10.00;;;2.50;99.90;;;;;;5092998;28;20255;-73
2020/12/07 01:14:28;;;;;;;15.07;8.87;;;2.50;99.90;;;;;;5088406;28;20209;-73
2020/12/07 01:16:55;;;;;;;14.87;9.23;;;2.40;99.90;;;;;;5100288;28;20196;-74
2020/12/07 01:19:22;;;;;;;13.27;8.77;;;2.40;99.90;;;;;;5085732;28;20217;-72
2020/12/07 01:21:49;;;;;;;13.63;8.73;;;2.50;99.90;;;;;;5089697;28;20563;-74
2020/12/07 01:24:16;;;;;;;13.17;8.73;;;2.40;99.90;;;;;;5089241;28;20201;-73
2020/12/07 01:26:43;;;;;;;14.37;8.63;;;2.50;99.90;;;;;;5089085;28;20197;-75
2020/12/07 01:29:13;;;;;;;12.93;8.90;;;2.40;99.90;;;;;;5088683;28;20243;-77
2020/12/07 01:31:40;;;;;;;11.40;8.20;;;2.50;99.90;;;;;;5094301;28;20197;-75
2020/12/07 01:34:06;;;;;;;10.83;8.03;;;2.50;99.90;;;;;;5090384;28;20229;-73
2020/12/07 01:36:34;;;;;;;10.03;7.30;;;2.50;99.90;;;;;;5088116;28;20227;-74
2020/12/07 01:39:00;;;;;;;13.83;8.50;;;2.40;99.90;;;;;;5094334;28;20639;-72
2020/12/07 01:41:27;;;;;;;12.30;8.63;;;2.40;99.90;;;;;;5089991;28;20246;-72
2020/12/07 01:43:53;;;;;;;11.03;8.43;;;2.40;99.90;;;;;;5091126;28;20548;-72
2020/12/07 01:46:22;;;;;;;14.53;9.27;;;2.40;99.90;;;;;;5086411;28;20221;-72
2020/12/07 01:48:49;;;;;;;13.37;8.43;;;2.40;99.90;;;;;;5096645;28;20317;-72
2020/12/07 01:51:15;;;;;;;12.93;7.97;;;2.50;99.90;;;;;;5088711;28;20217;-72
2020/12/07 01:53:44;;;;;;;11.90;7.90;;;2.40;99.90;;;;;;5087852;28;20258;-71
2020/12/07 01:56:13;;;;;;;11.53;7.67;;;2.40;99.90;;;;;;5088700;28;20256;-72
2020/12/07 01:58:41;;;;;;;14.53;8.37;;;2.40;99.90;;;;;;5091713;28;20254;-72
2020/12/07 02:01:07;;;;;;;10.03;7.23;;;2.40;99.90;;;;;;5095754;28;20645;-75
2020/12/07 02:03:34;;;;;;;11.77;6.93;;;2.30;99.90;;;;;;5093665;28;20268;-74
2020/12/07 02:06:00;;;;;;;11.20;6.60;;;2.30;99.90;;;;;;5093880;28;20271;-75
2020/12/07 02:08:26;;;;;;;12.83;7.50;;;2.30;99.90;;;;;;5086944;28;20319;-74
2020/12/07 02:10:54;;;;;;;10.73;7.13;;;2.30;99.90;;;;;;5086209;28;20205;-74
2020/12/07 02:13:20;;;;;;;10.90;7.50;;;2.30;99.90;;;;;;5091564;28;20672;-74
2020/12/07 02:15:47;;;;;;;13.23;7.33;;;2.30;99.90;;;;;;5092561;28;20564;-74
2020/12/07 02:18:14;;;;;;;14.90;7.70;;;2.30;99.90;;;;;;5087452;28;20288;-74
2020/12/07 02:20:47;;;;;;;10.77;7.17;;;2.30;99.90;;;;;;5091151;28;20208;-73
2020/12/07 02:23:13;;;;;;;9.57;6.53;;;2.30;99.90;;;;;;5089333;28;20239;-74
2020/12/07 02:25:40;;;;;;;11.67;7.90;;;2.30;99.90;;;;;;5093426;28;20311;-74
2020/12/07 02:28:06;;;;;;;14.73;7.67;;;2.30;99.90;;;;;;5085990;28;20245;-74
2020/12/07 02:30:33;;;;;;;14.97;8.27;;;2.30;99.90;;;;;;5091528;28;20724;-74
2020/12/07 02:32:59;;;;;;;11.83;7.53;;;2.30;99.90;;;;;;5086930;28;20205;-74
2020/12/07 02:35:26;;;;;;;14.70;7.43;;;2.20;99.90;;;;;;5075268;28;20204;-73
2020/12/07 02:37:53;;;;;;;9.97;6.53;;;2.30;99.90;;;;;;5083785;28;20294;-75
2020/12/07 02:40:20;;;;;;;12.07;7.00;;;2.20;99.90;;;;;;5080065;28;20611;-73
2020/12/07 02:42:46;;;;;;;12.53;7.53;;;2.30;99.90;;;;;;5084417;28;20653;-74
2020/12/07 02:45:14;;;;;;;12.27;7.87;;;2.20;99.90;;;;;;5089843;28;20260;-73
2020/12/07 02:47:41;;;;;;;12.07;8.07;;;2.30;99.90;;;;;;5091561;28;20243;-74
2020/12/07 02:50:09;;;;;;;11.83;7.93;;;2.30;99.90;;;;;;5085073;28;20209;-74
2020/12/07 02:52:35;;;;;;;10.47;6.83;;;2.30;99.90;;;;;;5081059;28;20653;-75
2020/12/07 02:55:06;;;;;;;10.60;7.07;;;2.20;99.90;;;;;;5082166;28;20691;-75
2020/12/07 02:57:32;;;;;;;12.57;7.13;;;2.30;99.90;;;;;;5092186;28;20231;-76
2020/12/07 02:59:59;;;;;;;11.83;6.97;;;2.20;99.90;;;;;;5088611;28;20228;-75
2020/12/07 03:02:25;;;;;;;10.30;6.83;;;2.20;99.90;;;;;;5092286;28;20232;-76
2020/12/07 03:04:51;;;;;;;9.03;6.67;;;2.20;99.90;;;;;;5078400;28;20261;-74
2020/12/07 03:07:18;;;;;;;11.80;7.80;;;2.20;99.90;;;;;;5079395;28;20243;-75
2020/12/07 03:09:44;;;;;;;9.17;6.43;;;2.20;99.90;;;;;;5086258;28;20232;-75
2020/12/07 03:12:12;;;;;;;9.20;5.40;;;2.20;99.90;;;;;;5088368;28;20264;-75
2020/12/07 03:14:38;;;;;;;10.43;6.20;;;2.10;99.90;;;;;;5088590;28;20689;-74
2020/12/07 03:17:05;;;;;;;12.20;7.17;;;2.10;99.90;;;;;;5094615;28;20646;-73
2020/12/07 03:19:31;;;;;;;9.90;7.13;;;2.10;99.90;;;;;;5082611;28;20201;-74
2020/12/07 03:21:58;;;;;;;13.60;7.17;;;2.10;99.90;;;;;;5087146;28;20257;-74
2020/12/07 03:24:24;;;;;;;9.77;7.17;;;2.20;99.90;;;;;;5086005;28;20229;-74
2020/12/07 03:26:51;;;;;;;10.40;6.37;;;2.10;99.90;;;;;;5086096;28;20232;-73
2020/12/07 03:29:18;;;;;;;14.27;6.73;;;2.20;99.90;;;;;;5083680;28;20238;-74
2020/12/07 03:31:45;;;;;;;8.70;6.73;;;2.10;99.90;;;;;;5087221;28;20255;-74
2020/12/07 03:34:12;;;;;;;8.17;6.50;;;2.10;99.90;;;;;;5089177;28;20238;-74
2020/12/07 03:36:41;;;;;;;9.30;6.60;;;2.10;99.90;;;;;;5084650;28;20225;-74
2020/12/07 03:39:08;;;;;;;9.60;6.03;;;2.10;99.90;;;;;;5085405;28;20661;-74
2020/12/07 03:41:34;;;;;;;11.27;6.77;;;2.10;99.90;;;;;;5081154;28;20519;-74
2020/12/07 03:44:01;;;;;;;7.67;5.53;;;2.10;99.90;;;;;;5085527;28;20200;-74
2020/12/07 03:46:28;;;;;;;9.53;6.20;;;2.10;99.90;;;;;;5093800;28;20267;-74
2020/12/07 03:48:55;;;;;;;7.17;5.77;;;2.00;99.90;;;;;;5094191;28;20690;-74
2020/12/07 03:51:21;;;;;;;7.83;5.70;;;2.00;99.90;;;;;;5082735;28;20251;-74
2020/12/07 03:53:48;;;;;;;11.80;6.50;;;2.00;99.90;;;;;;5083428;28;20253;-75
2020/12/07 03:56:14;;;;;;;8.30;6.77;;;2.00;99.90;;;;;;5085013;28;20333;-74
2020/12/07 03:58:41;;;;;;;8.43;5.40;;;2.00;99.90;;;;;;5084487;28;20205;-74
2020/12/07 04:01:09;;;;;;;7.93;6.00;;;1.90;99.90;;;;;;5087532;28;20685;-74
2020/12/07 04:03:38;;;;;;;10.17;6.60;;;1.90;99.90;;;;;;5088850;28;20683;-75
2020/12/07 04:06:09;;;;;;;7.40;5.83;;;1.90;99.90;;;;;;5085450;28;20221;-75
2020/12/07 04:08:35;;;;;;;10.10;6.10;;;1.90;99.90;;;;;;5085413;28;20219;-75
2020/12/07 04:11:01;;;;;;;8.30;5.33;;;1.90;99.90;;;;;;5081541;28;20233;-75
2020/12/07 04:13:28;;;;;;;9.93;6.67;;;1.90;99.90;;;;;;5082364;28;20565;-75
2020/12/07 04:15:55;;;;;;;7.20;5.20;;;1.90;99.90;;;;;;5081560;28;20286;-75
2020/12/07 04:18:21;;;;;;;10.83;6.00;;;1.90;99.90;;;;;;5084602;28;20250;-75
2020/12/07 04:20:48;;;;;;;8.93;5.47;;;1.80;99.90;;;;;;5084709;28;20244;-75
2020/12/07 04:23:15;;;;;;;8.97;6.10;;;1.90;99.90;;;;;;5078749;28;20251;-75
2020/12/07 04:25:41;;;;;;;10.23;5.47;;;1.90;99.90;;;;;;5082709;28;20224;-74
2020/12/07 04:28:08;;;;;;;9.33;5.70;;;1.80;99.90;;;;;;5086492;28;20234;-74
2020/12/07 04:30:38;;;;;;;6.87;5.23;;;1.90;99.90;;;;;;5087032;28;20208;-75
2020/12/07 04:33:08;;;;;;;7.73;5.83;;;1.90;99.90;;;;;;5079737;28;20220;-75
2020/12/07 04:35:34;;;;;;;9.83;6.03;;;1.80;99.90;;;;;;5078072;28;20247;-74
2020/12/07 04:38:02;;;;;;;9.60;5.93;;;1.80;99.90;;;;;;5084308;28;20260;-73
2020/12/07 04:40:30;;;;;;;10.63;5.73;;;1.90;99.90;;;;;;5080916;28;20240;-74
2020/12/07 04:42:57;;;;;;;7.13;5.27;;;1.90;99.90;;;;;;5080423;28;20241;-74
2020/12/07 04:45:24;;;;;;;8.10;5.03;;;1.90;99.90;;;;;;5086900;28;20225;-75
2020/12/07 04:47:52;;;;;;;8.33;5.43;;;1.90;99.90;;;;;;5079950;28;20213;-74
2020/12/07 04:50:20;;;;;;;8.03;6.00;;;1.90;99.90;;;;;;5085375;28;20610;-75
2020/12/07 04:52:48;;;;;;;9.93;5.53;;;1.90;99.90;;;;;;5085940;28;20637;-73
2020/12/07 04:55:16;;;;;;;12.43;6.37;;;1.90;99.90;;;;;;5075714;28;20193;-73
2020/12/07 04:57:46;;;;;;;7.67;5.60;;;1.90;99.90;;;;;;5093180;28;20201;-75
2020/12/07 05:00:13;;;;;;;10.10;5.93;;;1.90;99.90;;;;;;5082088;28;21621;-75
2020/12/07 05:02:40;;;;;;;8.50;5.87;;;1.90;99.90;;;;;;5088604;28;20237;-74
2020/12/07 05:05:07;;;;;;;8.70;6.47;;;1.90;99.90;;;;;;5080813;28;20746;-75
2020/12/07 05:07:35;;;;;;;8.83;5.80;;;1.90;99.90;;;;;;5090517;28;20204;-74
2020/12/07 05:10:10;;;;;;;9.23;5.60;;;1.90;99.90;;;;;;5087078;28;20235;-74
2020/12/07 05:12:41;;;;;;;7.93;5.67;;;1.90;99.90;;;;;;5081799;28;20228;-74
2020/12/07 05:15:11;;;;;;;8.63;5.70;;;1.90;99.90;;;;;;5089366;28;20196;-75
2020/12/07 05:17:38;;;;;;;13.20;6.17;;;1.80;99.90;;;;;;5085909;28;20639;-75
2020/12/07 05:20:05;;;;;;;8.20;6.03;;;1.90;99.90;;;;;;5088383;28;20239;-76
2020/12/07 05:22:31;;;;;;;12.00;5.97;;;1.90;99.90;;;;;;5080796;28;20258;-75
2020/12/07 05:24:58;;;;;;;9.10;5.80;;;1.90;99.90;;;;;;5081672;28;20216;-75
2020/12/07 05:27:27;;;;;;;9.53;5.80;;;1.90;99.90;;;;;;5084285;28;20260;-74
2020/12/07 05:30:08;;;;;;;8.07;6.23;;;1.90;99.90;;;;;;5086105;28;20231;-75
2020/12/07 05:32:37;;;;;;;9.43;6.60;;;1.80;99.90;;;;;;5083187;28;20194;-75
2020/12/07 05:35:06;;;;;;;12.07;7.03;;;1.80;99.90;;;;;;5089614;28;20220;-76
2020/12/07 05:37:33;;;;;;;9.90;5.80;;;1.90;99.90;;;;;;5080559;28;20208;-75
2020/12/07 05:40:03;;;;;;;11.03;6.30;;;1.90;99.90;;;;;;5084805;28;20240;-74
2020/12/07 05:42:31;;;;;;;10.23;6.30;;;1.90;99.90;;;;;;5083148;28;20265;-74
2020/12/07 05:45:00;;;;;;;10.23;5.53;;;1.90;99.90;;;;;;5087134;28;20235;-74
2020/12/07 05:47:27;;;;;;;10.93;6.67;;;1.90;99.90;;;;;;5083298;28;20301;-75
2020/12/07 05:49:56;;;;;;;12.43;6.93;;;1.80;99.90;;;;;;5078973;28;20285;-75
2020/12/07 05:52:32;;;;;;;11.00;6.93;;;1.80;99.90;;;;;;5084354;28;20200;-74
2020/12/07 05:55:00;;;;;;;9.30;6.70;;;1.80;99.90;;;;;;5079927;28;20275;-75
2020/12/07 05:57:28;;;;;;;11.97;6.47;;;1.70;99.90;;;;;;5082732;28;20201;-75
2020/12/07 05:59:57;;;;;;;9.10;6.50;;;1.80;99.90;;;;;;5091278;28;20282;-75
2020/12/07 06:02:24;;;;;;;10.47;6.97;;;1.80;99.90;;;;;;5078918;28;20197;-75
2020/12/07 06:04:54;;;;;;;9.80;6.63;;;1.80;99.90;;;;;;5084774;28;20239;-75
2020/12/07 06:07:28;;;;;;;8.70;6.87;;;1.80;99.90;;;;;;5080307;28;20201;-75
2020/12/07 06:09:56;;;;;;;9.63;7.03;;;1.80;99.90;;;;;;5083387;28;20216;-75
2020/12/07 06:12:28;;;;;;;8.63;6.03;;;1.70;99.90;;;;;;5078370;28;20231;-75
2020/12/07 06:14:54;;;;;;;11.70;6.97;;;1.80;99.90;;;;;;5085884;28;20536;-75
2020/12/07 06:17:25;;;;;;;15.27;7.67;;;1.80;99.90;;;;;;5088939;28;20206;-75
2020/12/07 06:19:52;;;;;;;11.17;7.20;;;1.80;99.90;;;;;;5089918;28;20201;-76
2020/12/07 06:22:22;;;;;;;10.07;7.07;;;1.70;99.90;;;;;;5078900;28;20230;-75
2020/12/07 06:24:50;;;;;;;9.53;6.30;;;1.80;99.90;;;;;;5087901;28;20213;-76
2020/12/07 06:27:17;;;;;;;10.60;6.90;;;1.70;99.90;;;;;;5072583;28;20206;-75
2020/12/07 06:29:59;;;;;;;11.80;6.63;;;1.70;99.90;;;;;;5079450;28;20204;-75
2020/12/07 06:32:57;;;;;;;9.10;6.50;;;1.70;99.90;;;;;;5085057;28;20232;-75
2020/12/07 06:35:27;;;;;;;9.83;6.47;;;1.70;99.90;;;;;;5083951;28;20201;-75
2020/12/07 06:37:54;;;;;;;11.07;7.27;;;1.70;99.90;;;;;;5086493;28;20244;-76
2020/12/07 06:40:24;;;;;;;10.23;6.47;;;1.70;99.90;;;;;;5084726;28;20250;-76
2020/12/07 06:42:51;;;;;;;13.07;7.17;;;1.70;99.90;;;;;;5085825;28;20243;-75
2020/12/07 06:45:22;;;;;;;7.93;5.77;;;1.70;99.90;;;;;;5088541;28;20228;-75
2020/12/07 06:47:52;;;;;;;12.40;6.70;;;1.70;99.90;;;;;;5091569;28;20217;-74
2020/12/07 06:50:22;;;;;;;7.80;6.27;;;1.70;99.90;;;;;;5088389;28;20562;-75
2020/12/07 06:52:50;;;;;;;7.67;5.53;;;1.70;99.90;;;;;;5087269;28;20214;-74
2020/12/07 06:55:17;;;;;;;7.67;6.23;;;1.70;99.90;;;;;;5091822;28;20220;-75
2020/12/07 06:57:45;;;;;;;10.90;6.33;;;1.70;99.90;;;;;;5086126;28;20275;-75
2020/12/07 07:00:14;;;;;;;9.37;6.33;;;1.70;99.90;;;;;;5085148;28;20621;-73
2020/12/07 07:02:42;;;;;;;9.77;5.83;;;1.70;99.90;;;;;;5081530;28;20649;-80
2020/12/07 07:05:10;;;;;;;11.30;6.33;;;1.70;99.90;;;;;;5095030;28;20212;-79
2020/12/07 07:07:37;;;;;;;9.30;6.53;;;1.70;99.90;;;;;;5089225;28;20197;-79
2020/12/07 07:10:05;;;;;;;10.90;7.27;;;1.70;99.90;;;;;;5085079;28;20200;-77
2020/12/07 07:12:32;;;;;;;11.67;6.23;;;1.70;99.90;;;;;;5083012;28;20255;-78
2020/12/07 07:14:58;;;;;;;12.17;7.03;;;1.70;99.90;;;;;;5090563;28;20204;-76
2020/12/07 07:17:29;;;;;;;11.13;6.40;;;1.80;99.90;;;;;;5085579;28;20220;-77
2020/12/07 07:19:56;;;;;;;11.37;6.23;;;1.70;99.90;;;;;;5087251;28;20236;-79
2020/12/07 07:22:27;;;;;;;10.20;6.73;;;1.80;99.90;;;;;;5098655;28;20204;-80
2020/12/07 07:25:03;;;;;;;6.73;5.30;;;1.80;99.90;;;;;;5089322;28;20216;-78
2020/12/07 07:30:25;;;;;;;10.87;5.97;;;1.90;99.90;;;;;;5067503;28;20556;-77
2020/12/07 07:32:53;;;;;;;10.67;6.47;;;1.90;99.90;;;;;;5087001;28;20209;-76
2020/12/07 07:35:22;;;;;;;12.53;5.70;;;2.00;99.90;;;;;;5085618;28;20212;-80
2020/12/07 07:37:49;;;;;;;9.67;6.40;;;2.00;99.90;;;;;;5090376;28;20292;-79
2020/12/07 07:40:18;;;;;;;9.07;6.27;;;1.90;99.90;;;;;;5082308;28;20209;-79
2020/12/07 07:42:48;;;;;;;10.83;6.17;;;2.00;99.90;;;;;;5079729;28;20209;-77
2020/12/07 07:45:18;;;;;;;12.63;5.83;;;2.10;99.90;;;;;;5086762;28;20213;-77
2020/12/07 07:47:52;;;;;;;9.27;6.07;;;2.10;99.90;;;;;;5090437;28;20204;-82
2020/12/07 08:16:20;;;;;;;9.03;5.63;;;2.50;99.90;;;;;;5011245;28;20211;-73
2020/12/07 08:18:50;;;;;;;9.60;5.53;;;2.60;99.90;;;;;;5007570;28;20687;-72
2020/12/07 08:21:31;;;;;;;11.37;5.37;;;2.80;99.90;;;;;;5043844;28;20301;-74
2020/12/07 08:24:06;;;;;;;8.67;4.73;;;2.90;99.90;;;;;;5073374;28;20239;-72
2020/12/07 08:26:32;;;;;;;8.20;4.83;;;2.90;99.90;;;;;;5082888;28;20621;-73
2020/12/07 08:29:05;;;;;;;8.27;4.70;;;3.00;99.90;;;;;;5078482;28;20611;-74
2020/12/07 08:31:36;;;;;;;8.67;5.77;;;3.00;99.90;;;;;;5088123;28;20612;-71
2020/12/07 08:34:07;;;;;;;14.27;6.27;;;3.00;99.90;;;;;;5090795;28;20560;-70
2020/12/07 08:36:34;;;;;;;9.00;5.10;;;3.00;99.90;;;;;;5085921;28;20551;-73
2020/12/07 08:39:01;;;;;;;11.07;5.60;;;3.30;99.90;;;;;;5073498;28;20247;-72
2020/12/07 08:41:30;;;;;;;8.43;5.10;;;3.60;99.90;;;;;;5074380;28;20240;-73
2020/12/07 08:43:57;;;;;;;12.13;5.70;;;4.40;99.90;;;;;;5073752;28;20251;-74
2020/12/07 08:46:26;;;;;;;6.93;4.97;;;4.90;99.90;;;;;;5073168;28;20899;-74
2020/12/07 08:48:55;;;;;;;9.93;5.07;;;4.90;99.90;;;;;;5087288;28;20711;-73
2020/12/07 08:51:23;;;;;;;11.40;4.87;;;5.20;99.90;;;;;;5091725;28;20204;-74
2020/12/07 08:53:50;;;;;;;10.37;5.67;;;5.70;99.90;;;;;;5074120;28;20205;-72
2020/12/07 08:56:17;;;;;;;10.97;5.30;;;5.70;99.60;;;;;;5059874;28;20597;-73
2020/12/07 08:58:44;;;;;;;8.37;4.60;;;6.30;99.90;;;;;;5067579;28;20248;-74
2020/12/07 09:01:12;;;;;;;9.03;4.87;;;6.90;99.20;;;;;;5074103;28;20634;-73
2020/12/07 09:03:41;;;;;;;8.23;4.43;;;7.60;96.70;;;;;;5073761;28;20615;-74
2020/12/07 09:06:09;;;;;;;8.57;4.70;;;8.40;94.20;;;;;;5074278;28;20312;-75
2020/12/07 09:08:36;;;;;;;6.77;4.40;;;9.50;91.50;;;;;;5074924;28;20235;-75
2020/12/07 09:11:04;;;;;;;9.33;5.90;;;10.60;80.40;;;;;;5074742;28;20217;-74
2020/12/07 09:13:30;;;;;;;10.30;5.80;;;10.40;71.70;;;;;;5072973;28;20201;-75
2020/12/07 09:15:57;;;;;;;7.83;5.20;;;10.30;71.90;;;;;;5080008;28;20217;-73
2020/12/07 09:18:23;;;;;;;12.23;5.73;;;9.80;75.60;;;;;;5063608;28;20237;-75
2020/12/07 09:20:51;;;;;;;8.63;4.63;;;9.80;72.40;;;;;;5074275;28;20648;-76
2020/12/07 09:23:19;;;;;;;9.23;5.57;;;10.40;75.10;;;;;;5074880;28;20205;-76
2020/12/07 09:25:46;;;;;;;11.37;5.70;;;10.70;68.60;;;;;;5076118;28;20236;-77
2020/12/07 09:28:12;;;;;;;11.17;5.47;;;10.50;64.80;;;;;;5069807;28;20197;-75
2020/12/07 09:30:42;;;;;;;10.20;5.77;;;10.00;64.30;;;;;;5076467;28;20205;-76
2020/12/07 09:33:10;;;;;;;7.07;5.33;;;9.70;70.10;;;;;;5077080;28;20669;-74
2020/12/07 09:35:37;;;;;;;8.57;5.03;;;9.30;71.00;;;;;;5086752;28;20201;-75
2020/12/07 09:38:03;;;;;;;7.97;4.73;;;9.30;71.70;;;;;;5078076;28;20237;-75
2020/12/07 09:40:31;;;;;;;8.50;5.23;;;9.90;69.10;;;;;;5088338;28;20197;-76
2020/12/07 09:42:57;;;;;;;10.57;5.20;;;10.90;66.50;;;;;;5079302;28;20618;-75
2020/12/07 09:45:24;;;;;;;8.53;5.33;;;11.70;65.80;;;;;;5078741;28;20635;-76
2020/12/07 09:47:50;;;;;;;7.13;5.03;;;13.10;64.30;;;;;;5079220;28;20624;-76
2020/12/07 09:50:22;;;;;;;8.20;5.60;;;14.20;57.40;;;;;;5088033;28;20241;-76
2020/12/07 09:52:49;;;;;;;10.73;5.17;;;14.40;51.60;;;;;;5077194;28;20673;-75
2020/12/07 09:55:15;;;;;;;9.50;5.57;;;14.10;51.00;;;;;;5079294;28;20198;-73
2020/12/07 09:57:43;;;;;;;10.40;5.40;;;13.20;50.10;;;;;;5082204;28;20209;-73
2020/12/07 10:00:10;;;;;;;8.97;5.47;;;12.20;51.90;;;;;;5084637;28;20637;-72
2020/12/07 10:02:36;;;;;;;10.17;5.97;;;11.40;53.90;;;;;;5080257;28;20205;-73
2020/12/07 10:05:04;;;;;;;9.80;5.67;;;11.00;56.40;;;;;;5086611;28;20196;-73
2020/12/07 10:07:31;;;;;;;10.33;5.10;;;11.10;57.60;;;;;;5081646;28;20275;-73
2020/12/07 10:09:57;;;;;;;10.33;5.70;;;11.90;57.10;;;;;;5087519;28;20216;-71
2020/12/07 10:12:24;;;;;;;9.77;6.10;;;12.70;53.90;;;;;;5084921;28;20221;-72
2020/12/07 10:14:51;;;;;;;6.53;4.87;;;13.60;53.60;;;;;;5082380;28;20726;-71
2020/12/07 10:17:17;;;;;;;7.97;4.97;;;14.60;49.80;;;;;;5077106;28;20662;-70
2020/12/07 10:19:44;;;;;;;9.10;5.70;;;15.00;47.00;;;;;;5076081;28;20213;-71
2020/12/07 10:22:12;;;;;;;9.50;5.23;;;14.60;47.30;;;;;;5075427;28;20271;-72
2020/12/07 10:24:38;;;;;;;9.77;6.00;;;14.00;47.90;;;;;;5074298;28;20205;-70
2020/12/07 10:27:05;;;;;;;13.67;5.60;;;13.20;48.00;;;;;;5076113;28;20221;-72
2020/12/07 10:29:31;;;;;;;7.97;5.50;;;12.70;50.60;;;;;;5075379;28;20205;-73
2020/12/07 10:31:58;;;;;;;9.73;5.80;;;12.50;50.40;;;;;;5069523;28;20241;-74
2020/12/07 10:34:25;;;;;;;9.97;5.23;;;12.70;50.80;;;;;;5072279;28;20205;-72
2020/12/07 10:36:52;;;;;;;9.40;5.50;;;13.40;52.70;;;;;;5081717;28;20229;-71
2020/12/07 10:39:18;;;;;;;9.97;5.20;;;14.40;48.10;;;;;;5073716;28;20634;-72
2020/12/07 10:41:45;;;;;;;9.07;5.47;;;15.00;47.60;;;;;;5079211;28;20205;-72
2020/12/07 10:44:12;;;;;;;10.00;5.30;;;15.80;46.40;;;;;;5076078;28;20212;-72
2020/12/07 10:46:39;;;;;;;12.70;5.23;;;16.60;43.90;;;;;;5074828;28;20244;-74
2020/12/07 10:49:07;;;;;;;9.43;5.60;;;17.10;42.50;;;;;;5070174;28;20202;-73
2020/12/07 10:51:35;;;;;;;10.13;5.97;;;17.50;41.50;;;;;;5087317;28;20610;-72
2020/12/07 10:54:03;;;;;;;8.53;5.40;;;17.50;40.90;;;;;;5074689;28;20208;-74
2020/12/07 10:56:29;;;;;;;9.53;6.10;;;17.40;41.20;;;;;;5076864;28;20201;-74
2020/12/07 10:58:56;;;;;;;9.13;5.57;;;17.70;41.20;;;;;;5073138;28;20787;-74
2020/12/07 11:01:22;;;;;;;9.23;5.93;;;18.00;39.80;;;;;;5076680;28;20603;-74
2020/12/07 11:03:49;;;;;;;7.73;5.57;;;18.00;39.50;;;;;;5075392;28;20616;-73
2020/12/07 11:06:18;;;;;;;8.00;5.37;;;18.10;39.70;;;;;;5074628;28;20241;-73
2020/12/07 11:08:51;;;;;;;9.17;6.00;;;17.90;38.40;;;;;;5075176;28;20674;-74
2020/12/07 11:11:18;;;;;;;8.37;5.20;;;17.50;39.80;;;;;;5075158;28;20228;-73
2020/12/07 11:13:45;;;;;;;8.70;5.00;;;17.60;39.80;;;;;;5064647;28;20267;-72
2020/12/07 11:16:12;;;;;;;9.57;6.17;;;17.70;38.80;;;;;;5072051;28;20546;-72
2020/12/07 11:18:39;;;;;;;9.57;5.77;;;17.80;39.60;;;;;;5072998;28;20209;-71
2020/12/07 11:21:12;;;;;;;8.00;4.90;;;18.10;38.70;;;;;;5075281;28;20217;-70
2020/12/07 11:23:42;;;;;;;7.93;5.33;;;18.00;38.30;;;;;;5075493;28;20602;-69
2020/12/07 11:26:10;;;;;;;6.60;4.93;;;17.70;38.70;;;;;;5065037;28;20874;-70
2020/12/07 11:28:37;;;;;;;8.50;5.17;;;17.40;38.50;;;;;;5074889;28;20699;-72
2020/12/07 11:31:03;;;;;;;7.97;5.20;;;17.10;39.10;;;;;;5073685;28;20221;-71
2020/12/07 11:33:31;;;;;;;11.70;5.67;;;16.10;37.90;;;;;;5073946;28;20630;-72
2020/12/07 11:35:58;;;;;;;9.00;5.10;;;14.50;39.70;;;;;;5074188;28;20216;-71
2020/12/07 11:38:28;;;;;;;9.33;5.33;;;12.60;42.20;;;;;;5068299;28;20621;-72
2020/12/07 11:41:11;;;;;;;9.77;5.40;;;10.80;45.20;;;;;;5072729;28;20221;-71
2020/12/07 11:43:44;;;;;;;7.93;4.87;;;9.30;49.30;;;;;;5075519;28;20282;-72
2020/12/07 11:46:17;;;;;;;8.80;4.63;;;8.00;52.30;;;;;;5079544;28;20245;-71
2020/12/07 11:48:44;;;;;;;10.00;5.77;;;7.00;54.70;;;;;;5081238;28;20702;-72
2020/12/07 11:51:10;;;;;;;8.50;5.17;;;6.40;57.00;;;;;;5074764;28;20587;-72
2020/12/07 11:53:37;;;;;;;8.83;5.60;;;5.80;58.70;;;;;;5076687;28;20216;-72
2020/12/07 11:56:04;;;;;;;9.23;5.60;;;5.30;60.50;;;;;;5074386;28;20229;-71
2020/12/07 11:58:31;;;;;;;11.70;5.47;;;5.00;62.30;;;;;;5074141;28;20646;-71
2020/12/07 12:00:57;;;;;;;7.53;5.33;;;4.80;63.80;;;;;;5070663;28;20250;-72
2020/12/07 12:03:24;;;;;;;9.43;4.90;;;4.70;65.30;;;;;;5066024;28;20239;-73
2020/12/07 12:05:50;;;;;;;8.63;5.27;;;4.60;66.30;;;;;;5074097;28;20660;-72
2020/12/07 12:08:17;;;;;;;9.63;4.93;;;4.50;67.50;;;;;;5067198;28;20320;-72
2020/12/07 12:10:48;;;;;;;7.00;4.70;;;4.30;68.90;;;;;;5071290;28;20239;-72
2020/12/07 12:13:16;;;;;;;11.13;5.73;;;4.20;70.10;;;;;;5072256;28;20217;-73
2020/12/07 12:15:42;;;;;;;10.80;5.53;;;4.10;71.50;;;;;;5073703;28;20205;-72
2020/12/07 12:18:09;;;;;;;9.00;5.70;;;4.00;72.80;;;;;;5070560;28;20630;-73
2020/12/07 12:20:37;;;;;;;8.23;4.90;;;3.90;74.30;;;;;;5073660;28;20239;-72
2020/12/07 12:23:04;;;;;;;10.83;5.27;;;3.90;75.60;;;;;;5074123;28;20294;-72
2020/12/07 12:25:30;;;;;;;9.80;5.67;;;3.90;77.00;;;;;;5071577;28;20249;-72
2020/12/07 12:27:57;;;;;;;10.93;5.20;;;3.80;78.40;;;;;;5066179;28;20257;-72
2020/12/07 12:30:25;;;;;;;9.70;5.73;;;3.80;79.80;;;;;;5068505;28;20205;-72
2020/12/07 12:32:51;;;;;;;9.63;5.50;;;3.70;80.90;;;;;;5074167;28;20274;-72
2020/12/07 12:35:18;;;;;;;12.60;6.30;;;3.70;82.20;;;;;;5073810;28;20232;-73
2020/12/07 12:37:45;;;;;;;9.77;5.70;;;3.60;83.40;;;;;;5070803;28;20255;-73
2020/12/07 12:40:11;;;;;;;9.80;5.20;;;3.60;84.70;;;;;;5069852;28;20209;-72
2020/12/07 12:42:38;;;;;;;9.47;5.37;;;3.50;85.80;;;;;;5075220;28;20681;-71
2020/12/07 12:45:04;;;;;;;9.20;5.07;;;3.50;87.00;;;;;;5087996;28;20213;-73
2020/12/07 12:47:31;;;;;;;12.40;5.93;;;3.40;88.20;;;;;;5091495;28;20255;-73
2020/12/07 12:49:58;;;;;;;8.57;5.60;;;3.30;89.10;;;;;;5078456;28;20202;-71
2020/12/07 12:52:25;;;;;;;11.77;5.80;;;3.20;90.00;;;;;;5071134;28;20742;-70
2020/12/07 12:54:52;;;;;;;12.60;6.07;;;3.20;90.60;;;;;;5076929;28;20262;-71
2020/12/07 12:57:19;;;;;;;11.57;5.83;;;3.10;91.10;;;;;;5072710;28;20283;-71
2020/12/07 12:59:45;;;;;;;10.77;5.80;;;3.10;91.50;;;;;;5073884;28;20707;-72
2020/12/07 13:02:12;;;;;;;9.63;5.10;;;3.10;91.90;;;;;;5073214;28;20209;-73
2020/12/07 13:04:40;;;;;;;14.80;6.90;;;3.00;92.30;;;;;;5074059;28;20201;-75
2020/12/07 13:07:07;;;;;;;11.03;6.23;;;3.00;92.70;;;;;;5071016;28;20252;-71
2020/12/07 13:09:34;;;;;;;9.60;5.90;;;3.00;93.00;;;;;;5073656;28;20818;-71
2020/12/07 13:12:00;;;;;;;12.03;6.10;;;3.00;93.30;;;;;;5075030;28;20241;-75
2020/12/07 13:14:27;;;;;;;15.33;6.40;;;3.00;93.40;;;;;;5063350;28;20663;-73
2020/12/07 13:17:00;;;;;;;10.43;5.40;;;3.00;93.70;;;;;;5073872;28;20217;-76
2020/12/07 13:19:27;;;;;;;13.40;6.63;;;2.90;93.70;;;;;;5082649;28;20267;-72
2020/12/07 13:21:59;;;;;;;12.53;6.20;;;3.00;94.10;;;;;;5079690;28;20200;-72